Las Vegas, Nevada
Traffic Map
Current Weather Conditions
Las Vegas, Nevada
Broken Clouds Thunderstorm
Broken Clouds
87°
Feels Like: 87°
Wind Chill: 87° Ceiling: 14000
Heat Index: 87° Visibility: 10mi
Dew Point: 45° Wind: 15mph
Humidity: 23% Direction: 310° (NW)
Pressure: 29.83in Gusts: 0mph
Raw Report DataKLAS 210356Z 31013KT 10SM TS SCT120 BKN140CB BKN220 31/07 A2983 RMK AO2 SLP074 OCNL LTGICCG NW-NE TS NW-NE MOV NW T03060072
Traffic Incident Summary
Active as of:
Severity:
Category:
InformationThere was an issue retrieving the traffic information for this location. Please try a different location or try again shortly.
Advertisements
Track Severe Weather on mobile